sensor_id;sensor_type;location;lat;lon;timestamp;pressure;altitude;pressure_sealevel;temperature;humidity
36234;BME280;43467;50.890;5.982;2023-08-17T00:01:23;100430.84;;;21.96;77.16
36234;BME280;43467;50.890;5.982;2023-08-17T00:03:48;100436.50;;;21.93;77.43
36234;BME280;43467;50.890;5.982;2023-08-17T00:06:14;100425.38;;;21.87;77.35
36234;BME280;43467;50.890;5.982;2023-08-17T00:08:39;100430.91;;;21.85;77.70
36234;BME280;43467;50.890;5.982;2023-08-17T00:11:04;100436.88;;;21.89;77.59
36234;BME280;43467;50.890;5.982;2023-08-17T00:13:30;100442.53;;;21.86;77.84
36234;BME280;43467;50.890;5.982;2023-08-17T00:15:55;100436.47;;;21.84;77.75
36234;BME280;43467;50.890;5.982;2023-08-17T00:18:21;100431.31;;;21.80;78.01
36234;BME280;43467;50.890;5.982;2023-08-17T00:20:46;100432.56;;;21.76;78.02
36234;BME280;43467;50.890;5.982;2023-08-17T00:23:11;100442.53;;;21.76;77.93
36234;BME280;43467;50.890;5.982;2023-08-17T00:25:37;100438.25;;;21.73;78.06
36234;BME280;43467;50.890;5.982;2023-08-17T00:28:02;100438.53;;;21.70;78.11
36234;BME280;43467;50.890;5.982;2023-08-17T00:30:28;100444.19;;;21.67;78.27
36234;BME280;43467;50.890;5.982;2023-08-17T00:32:53;100450.69;;;21.65;78.24
36234;BME280;43467;50.890;5.982;2023-08-17T00:35:18;100451.53;;;21.56;78.58
36234;BME280;43467;50.890;5.982;2023-08-17T00:37:44;100454.34;;;21.54;78.80
36234;BME280;43467;50.890;5.982;2023-08-17T00:40:09;100451.78;;;21.53;79.11
36234;BME280;43467;50.890;5.982;2023-08-17T00:42:35;100448.66;;;21.48;79.00
36234;BME280;43467;50.890;5.982;2023-08-17T00:45:00;100450.50;;;21.47;78.95
36234;BME280;43467;50.890;5.982;2023-08-17T00:47:27;100442.53;;;21.46;78.94
36234;BME280;43467;50.890;5.982;2023-08-17T00:49:53;100449.47;;;21.48;78.44
36234;BME280;43467;50.890;5.982;2023-08-17T00:52:19;100440.50;;;21.38;78.35
36234;BME280;43467;50.890;5.982;2023-08-17T00:54:44;100446.16;;;21.35;79.07
36234;BME280;43467;50.890;5.982;2023-08-17T00:57:10;100448.00;;;21.35;78.85
36234;BME280;43467;50.890;5.982;2023-08-17T00:59:35;100446.97;;;21.26;78.82
36234;BME280;43467;50.890;5.982;2023-08-17T01:02:01;100447.66;;;21.28;79.08
36234;BME280;43467;50.890;5.982;2023-08-17T01:04:27;100447.53;;;21.29;78.99
36234;BME280;43467;50.890;5.982;2023-08-17T01:06:52;100447.28;;;21.32;79.00
36234;BME280;43467;50.890;5.982;2023-08-17T01:09:18;100441.03;;;21.32;78.77
36234;BME280;43467;50.890;5.982;2023-08-17T01:12:00;100441.22;;;21.40;78.88
36234;BME280;43467;50.890;5.982;2023-08-17T01:14:37;100443.19;;;21.38;78.75
36234;BME280;43467;50.890;5.982;2023-08-17T01:17:10;100437.94;;;21.37;78.81
36234;BME280;43467;50.890;5.982;2023-08-17T01:19:38;100426.13;;;21.28;79.05
36234;BME280;43467;50.890;5.982;2023-08-17T01:22:06;100431.09;;;21.32;78.85
36234;BME280;43467;50.890;5.982;2023-08-17T01:24:33;100427.97;;;21.27;78.97
36234;BME280;43467;50.890;5.982;2023-08-17T01:26:58;100436.66;;;21.31;79.09
36234;BME280;43467;50.890;5.982;2023-08-17T01:29:24;100440.31;;;21.30;79.43
36234;BME280;43467;50.890;5.982;2023-08-17T01:31:56;100435.91;;;21.29;78.95
36234;BME280;43467;50.890;5.982;2023-08-17T01:34:25;100435.22;;;21.27;79.16
36234;BME280;43467;50.890;5.982;2023-08-17T01:37:00;100428.09;;;21.26;79.70
36234;BME280;43467;50.890;5.982;2023-08-17T01:39:36;100434.34;;;21.26;79.84
36234;BME280;43467;50.890;5.982;2023-08-17T01:42:03;100422.72;;;21.26;79.55
36234;BME280;43467;50.890;5.982;2023-08-17T01:44:29;100423.69;;;21.25;79.93
36234;BME280;43467;50.890;5.982;2023-08-17T01:46:55;100416.03;;;21.20;79.95
36234;BME280;43467;50.890;5.982;2023-08-17T01:49:20;100410.97;;;21.27;79.84
36234;BME280;43467;50.890;5.982;2023-08-17T01:51:46;100410.50;;;21.22;80.12
36234;BME280;43467;50.890;5.982;2023-08-17T01:54:11;100418.00;;;21.18;80.18
36234;BME280;43467;50.890;5.982;2023-08-17T01:56:36;100418.97;;;21.17;80.35
36234;BME280;43467;50.890;5.982;2023-08-17T01:59:02;100426.66;;;21.22;79.88
36234;BME280;43467;50.890;5.982;2023-08-17T02:01:28;100425.81;;;21.21;80.04
36234;BME280;43467;50.890;5.982;2023-08-17T02:03:53;100423.97;;;21.22;80.00
36234;BME280;43467;50.890;5.982;2023-08-17T02:06:19;100425.94;;;21.20;79.89
36234;BME280;43467;50.890;5.982;2023-08-17T02:08:45;100422.66;;;21.16;80.12
36234;BME280;43467;50.890;5.982;2023-08-17T02:11:10;100417.78;;;21.10;80.16
36234;BME280;43467;50.890;5.982;2023-08-17T02:13:36;100423.28;;;21.09;80.44
36234;BME280;43467;50.890;5.982;2023-08-17T02:16:03;100418.19;;;21.06;80.92
36234;BME280;43467;50.890;5.982;2023-08-17T02:18:29;100424.41;;;21.06;80.65
36234;BME280;43467;50.890;5.982;2023-08-17T02:20:56;100425.97;;;21.09;81.21
36234;BME280;43467;50.890;5.982;2023-08-17T02:23:22;100433.19;;;21.08;80.96
36234;BME280;43467;50.890;5.982;2023-08-17T02:25:47;100432.63;;;21.05;80.47
36234;BME280;43467;50.890;5.982;2023-08-17T02:28:12;100423.63;;;20.95;81.42
36234;BME280;43467;50.890;5.982;2023-08-17T02:30:38;100422.44;;;20.87;81.88
36234;BME280;43467;50.890;5.982;2023-08-17T02:33:03;100428.41;;;20.91;82.09
36234;BME280;43467;50.890;5.982;2023-08-17T02:35:29;100418.44;;;20.82;82.70
36234;BME280;43467;50.890;5.982;2023-08-17T02:37:55;100417.78;;;20.90;81.95
36234;BME280;43467;50.890;5.982;2023-08-17T02:40:20;100416.34;;;20.85;82.39
36234;BME280;43467;50.890;5.982;2023-08-17T02:42:46;100411.66;;;20.87;82.58
36234;BME280;43467;50.890;5.982;2023-08-17T02:45:11;100417.06;;;20.87;82.74
36234;BME280;43467;50.890;5.982;2023-08-17T02:47:37;100408.84;;;20.89;82.74
36234;BME280;43467;50.890;5.982;2023-08-17T02:50:02;100412.41;;;20.90;82.24
36234;BME280;43467;50.890;5.982;2023-08-17T02:52:27;100410.50;;;20.80;82.62
36234;BME280;43467;50.890;5.982;2023-08-17T02:54:53;100407.22;;;20.77;83.18
36234;BME280;43467;50.890;5.982;2023-08-17T02:57:18;100403.94;;;20.73;83.43
36234;BME280;43467;50.890;5.982;2023-08-17T02:59:44;100400.28;;;20.74;83.45
36234;BME280;43467;50.890;5.982;2023-08-17T03:02:09;100403.47;;;20.68;84.00
36234;BME280;43467;50.890;5.982;2023-08-17T03:04:34;100401.38;;;20.72;83.69
36234;BME280;43467;50.890;5.982;2023-08-17T03:07:00;100407.59;;;20.72;83.51
36234;BME280;43467;50.890;5.982;2023-08-17T03:09:25;100403.94;;;20.73;83.38
36234;BME280;43467;50.890;5.982;2023-08-17T03:11:51;100401.63;;;20.69;82.86
36234;BME280;43467;50.890;5.982;2023-08-17T03:14:17;100402.50;;;20.69;82.91
36234;BME280;43467;50.890;5.982;2023-08-17T03:16:42;100401.75;;;20.67;83.31
36234;BME280;43467;50.890;5.982;2023-08-17T03:19:08;100399.81;;;20.69;82.68
36234;BME280;43467;50.890;5.982;2023-08-17T03:21:36;100397.09;;;20.69;82.68
36234;BME280;43467;50.890;5.982;2023-08-17T03:24:01;100392.13;;;20.65;82.47
36234;BME280;43467;50.890;5.982;2023-08-17T03:26:27;100393.44;;;20.70;82.80
36234;BME280;43467;50.890;5.982;2023-08-17T03:28:52;100394.41;;;20.69;82.47
36234;BME280;43467;50.890;5.982;2023-08-17T03:31:20;100393.44;;;20.70;82.21
36234;BME280;43467;50.890;5.982;2023-08-17T03:33:46;100389.75;;;20.71;82.21
36234;BME280;43467;50.890;5.982;2023-08-17T03:36:11;100393.69;;;20.67;82.65
36234;BME280;43467;50.890;5.982;2023-08-17T03:38:36;100396.38;;;20.67;82.11
36234;BME280;43467;50.890;5.982;2023-08-17T03:41:04;100391.00;;;20.67;81.76
36234;BME280;43467;50.890;5.982;2023-08-17T03:43:30;100399.72;;;20.60;82.39
36234;BME280;43467;50.890;5.982;2023-08-17T03:45:55;100405.22;;;20.58;82.48
36234;BME280;43467;50.890;5.982;2023-08-17T03:48:21;100395.47;;;20.57;82.76
36234;BME280;43467;50.890;5.982;2023-08-17T03:50:51;100398.59;;;20.62;82.71
36234;BME280;43467;50.890;5.982;2023-08-17T03:53:17;100404.72;;;20.64;82.02
36234;BME280;43467;50.890;5.982;2023-08-17T03:55:49;100401.16;;;20.64;81.94
36234;BME280;43467;50.890;5.982;2023-08-17T03:58:15;100392.19;;;20.54;81.88
36234;BME280;43467;50.890;5.982;2023-08-17T04:00:41;100408.63;;;20.60;82.21
36234;BME280;43467;50.890;5.982;2023-08-17T04:03:07;100398.16;;;20.57;82.03
36234;BME280;43467;50.890;5.982;2023-08-17T04:05:33;100412.56;;;20.56;81.98
36234;BME280;43467;50.890;5.982;2023-08-17T04:07:59;100407.91;;;20.58;82.00
36234;BME280;43467;50.890;5.982;2023-08-17T04:10:29;100417.94;;;20.56;82.19
36234;BME280;43467;50.890;5.982;2023-08-17T04:12:56;100415.00;;;20.59;81.84
36234;BME280;43467;50.890;5.982;2023-08-17T04:15:21;100425.06;;;20.57;81.83
36234;BME280;43467;50.890;5.982;2023-08-17T04:17:46;100421.41;;;20.47;81.42
36234;BME280;43467;50.890;5.982;2023-08-17T04:20:12;100423.34;;;20.56;81.60
36234;BME280;43467;50.890;5.982;2023-08-17T04:22:37;100429.41;;;20.58;81.50
36234;BME280;43467;50.890;5.982;2023-08-17T04:25:04;100413.59;;;20.44;81.40
36234;BME280;43467;50.890;5.982;2023-08-17T04:27:29;100439.94;;;20.61;81.32
36234;BME280;43467;50.890;5.982;2023-08-17T04:29:55;100431.41;;;20.56;81.55
36234;BME280;43467;50.890;5.982;2023-08-17T04:32:20;100439.84;;;20.52;81.70
36234;BME280;43467;50.890;5.982;2023-08-17T04:34:46;100434.00;;;20.47;81.58
36234;BME280;43467;50.890;5.982;2023-08-17T04:37:12;100436.84;;;20.45;81.95
36234;BME280;43467;50.890;5.982;2023-08-17T04:39:37;100444.16;;;20.43;82.08
36234;BME280;43467;50.890;5.982;2023-08-17T04:42:03;100435.63;;;20.38;81.79
36234;BME280;43467;50.890;5.982;2023-08-17T04:44:29;100449.22;;;20.36;81.70
36234;BME280;43467;50.890;5.982;2023-08-17T04:46:54;100440.66;;;20.31;82.03
36234;BME280;43467;50.890;5.982;2023-08-17T04:49:20;100439.94;;;20.29;81.84
36234;BME280;43467;50.890;5.982;2023-08-17T04:51:45;100437.97;;;20.31;81.74
36234;BME280;43467;50.890;5.982;2023-08-17T04:54:11;100442.72;;;20.39;81.61
36234;BME280;43467;50.890;5.982;2023-08-17T04:56:37;100436.63;;;20.37;81.63
36234;BME280;43467;50.890;5.982;2023-08-17T04:59:02;100437.47;;;20.37;81.67
36234;BME280;43467;50.890;5.982;2023-08-17T05:01:27;100439.31;;;20.37;81.63
36234;BME280;43467;50.890;5.982;2023-08-17T05:03:53;100438.94;;;20.30;81.60
36234;BME280;43467;50.890;5.982;2023-08-17T05:06:18;100436.59;;;20.26;81.72
36234;BME280;43467;50.890;5.982;2023-08-17T05:08:43;100427.81;;;20.24;81.51
36234;BME280;43467;50.890;5.982;2023-08-17T05:11:09;100440.53;;;20.22;81.83
36234;BME280;43467;50.890;5.982;2023-08-17T05:13:34;100436.88;;;20.23;81.85
36234;BME280;43467;50.890;5.982;2023-08-17T05:16:00;100431.41;;;20.13;81.71
36234;BME280;43467;50.890;5.982;2023-08-17T05:18:25;100436.38;;;20.18;82.38
36234;BME280;43467;50.890;5.982;2023-08-17T05:20:50;100437.38;;;20.17;81.95
36234;BME280;43467;50.890;5.982;2023-08-17T05:23:16;100442.25;;;20.23;81.35
36234;BME280;43467;50.890;5.982;2023-08-17T05:25:41;100438.09;;;20.19;81.51
36234;BME280;43467;50.890;5.982;2023-08-17T05:28:07;100437.25;;;20.18;81.43
36234;BME280;43467;50.890;5.982;2023-08-17T05:30:33;100434.69;;;20.17;81.25
36234;BME280;43467;50.890;5.982;2023-08-17T05:32:58;100436.63;;;20.15;81.29
36234;BME280;43467;50.890;5.982;2023-08-17T05:35:24;100442.00;;;20.15;81.45
36234;BME280;43467;50.890;5.982;2023-08-17T05:37:50;100444.69;;;20.15;80.94
36234;BME280;43467;50.890;5.982;2023-08-17T05:40:15;100442.00;;;20.15;81.84
36234;BME280;43467;50.890;5.982;2023-08-17T05:42:40;100443.13;;;20.12;81.83
36234;BME280;43467;50.890;5.982;2023-08-17T05:45:07;100445.69;;;20.14;81.01
36234;BME280;43467;50.890;5.982;2023-08-17T05:47:32;100449.47;;;20.11;81.52
36234;BME280;43467;50.890;5.982;2023-08-17T05:49:58;100447.28;;;20.16;81.50
36234;BME280;43467;50.890;5.982;2023-08-17T05:52:23;100453.13;;;20.10;81.40
36234;BME280;43467;50.890;5.982;2023-08-17T05:54:49;100456.84;;;20.09;81.12
36234;BME280;43467;50.890;5.982;2023-08-17T05:57:14;100447.66;;;20.12;81.56
36234;BME280;43467;50.890;5.982;2023-08-17T05:59:39;100457.44;;;20.13;81.13
36234;BME280;43467;50.890;5.982;2023-08-17T06:02:05;100465.97;;;20.07;80.89
36234;BME280;43467;50.890;5.982;2023-08-17T06:04:30;100460.00;;;20.03;80.99
36234;BME280;43467;50.890;5.982;2023-08-17T06:06:56;100463.03;;;20.10;80.67
36234;BME280;43467;50.890;5.982;2023-08-17T06:09:21;100454.25;;;20.08;81.16
36234;BME280;43467;50.890;5.982;2023-08-17T06:11:47;100467.59;;;20.09;80.94
36234;BME280;43467;50.890;5.982;2023-08-17T06:14:12;100462.06;;;20.11;80.78
36234;BME280;43467;50.890;5.982;2023-08-17T06:16:39;100460.34;;;20.10;80.67
36234;BME280;43467;50.890;5.982;2023-08-17T06:19:04;100463.78;;;20.12;80.56
36234;BME280;43467;50.890;5.982;2023-08-17T06:21:29;100455.47;;;20.15;80.55
36234;BME280;43467;50.890;5.982;2023-08-17T06:23:55;100460.56;;;20.18;80.95
36234;BME280;43467;50.890;5.982;2023-08-17T06:26:20;100462.66;;;20.14;80.61
36234;BME280;43467;50.890;5.982;2023-08-17T06:28:45;100467.19;;;20.14;80.64
36234;BME280;43467;50.890;5.982;2023-08-17T06:31:14;100465.59;;;20.11;80.71
36234;BME280;43467;50.890;5.982;2023-08-17T06:33:40;100464.75;;;20.11;80.75
36234;BME280;43467;50.890;5.982;2023-08-17T06:36:07;100450.81;;;20.06;80.48
36234;BME280;43467;50.890;5.982;2023-08-17T06:38:33;100454.63;;;20.03;80.90
36234;BME280;43467;50.890;5.982;2023-08-17T06:40:58;100465.59;;;20.11;81.17
36234;BME280;43467;50.890;5.982;2023-08-17T06:43:23;100468.66;;;20.07;80.52
36234;BME280;43467;50.890;5.982;2023-08-17T06:45:49;100467.94;;;20.05;80.97
36234;BME280;43467;50.890;5.982;2023-08-17T06:48:14;100465.28;;;20.05;81.10
36234;BME280;43467;50.890;5.982;2023-08-17T06:50:39;100475.75;;;20.08;81.12
36234;BME280;43467;50.890;5.982;2023-08-17T06:53:05;100477.22;;;20.12;80.98
36234;BME280;43467;50.890;5.982;2023-08-17T06:55:30;100470.50;;;20.06;80.26
36234;BME280;43467;50.890;5.982;2023-08-17T06:57:56;100475.25;;;20.14;80.66
36234;BME280;43467;50.890;5.982;2023-08-17T07:00:22;100474.53;;;20.12;80.99
36234;BME280;43467;50.890;5.982;2023-08-17T07:02:48;100476.72;;;20.18;80.93
36234;BME280;43467;50.890;5.982;2023-08-17T07:05:14;100476.59;;;20.19;81.31
36234;BME280;43467;50.890;5.982;2023-08-17T07:07:40;100480.47;;;20.26;80.87
36234;BME280;43467;50.890;5.982;2023-08-17T07:10:06;100479.44;;;20.29;80.12
36234;BME280;43467;50.890;5.982;2023-08-17T07:12:32;100486.50;;;20.30;80.42
36234;BME280;43467;50.890;5.982;2023-08-17T07:14:57;100496.63;;;20.26;80.42
36234;BME280;43467;50.890;5.982;2023-08-17T07:17:23;100486.72;;;20.27;80.33
36234;BME280;43467;50.890;5.982;2023-08-17T07:19:48;100491.97;;;20.28;80.72
36234;BME280;43467;50.890;5.982;2023-08-17T07:22:14;100487.94;;;20.34;80.44
36234;BME280;43467;50.890;5.982;2023-08-17T07:24:41;100490.25;;;20.27;80.90
36234;BME280;43467;50.890;5.982;2023-08-17T07:27:07;100484.53;;;20.32;80.20
36234;BME280;43467;50.890;5.982;2023-08-17T07:29:32;100485.84;;;20.26;79.88
36234;BME280;43467;50.890;5.982;2023-08-17T07:31:58;100496.75;;;20.36;80.33
36234;BME280;43467;50.890;5.982;2023-08-17T07:34:26;100500.56;;;20.33;79.68
36234;BME280;43467;50.890;5.982;2023-08-17T07:36:52;100506.06;;;20.32;80.10
36234;BME280;43467;50.890;5.982;2023-08-17T07:39:18;100504.94;;;20.34;79.91
36234;BME280;43467;50.890;5.982;2023-08-17T07:41:43;100502.84;;;20.38;80.24
36234;BME280;43467;50.890;5.982;2023-08-17T07:44:09;100499.44;;;20.36;79.95
36234;BME280;43467;50.890;5.982;2023-08-17T07:46:34;100499.78;;;20.42;80.16
36234;BME280;43467;50.890;5.982;2023-08-17T07:49:00;100499.41;;;20.47;79.95
36234;BME280;43467;50.890;5.982;2023-08-17T07:51:25;100494.28;;;20.44;79.89
36234;BME280;43467;50.890;5.982;2023-08-17T07:53:50;100492.84;;;20.40;79.80
36234;BME280;43467;50.890;5.982;2023-08-17T07:56:16;100492.09;;;20.38;79.71
36234;BME280;43467;50.890;5.982;2023-08-17T07:58:41;100487.19;;;20.43;79.64
36234;BME280;43467;50.890;5.982;2023-08-17T08:01:06;100491.25;;;20.37;79.74
36234;BME280;43467;50.890;5.982;2023-08-17T08:03:32;100495.91;;;20.35;79.50
36234;BME280;43467;50.890;5.982;2023-08-17T08:05:57;100501.16;;;20.37;80.18
36234;BME280;43467;50.890;5.982;2023-08-17T08:08:23;100500.16;;;20.38;80.39
36234;BME280;43467;50.890;5.982;2023-08-17T08:10:48;100501.28;;;20.35;80.22
36234;BME280;43467;50.890;5.982;2023-08-17T08:13:14;100502.25;;;20.34;80.18
36234;BME280;43467;50.890;5.982;2023-08-17T08:15:39;100498.84;;;20.32;80.45
36234;BME280;43467;50.890;5.982;2023-08-17T08:18:05;100498.72;;;20.34;80.73
36234;BME280;43467;50.890;5.982;2023-08-17T08:20:30;100506.66;;;20.35;80.92
36234;BME280;43467;50.890;5.982;2023-08-17T08:22:56;100497.72;;;20.35;80.81
36234;BME280;43467;50.890;5.982;2023-08-17T08:25:21;100489.19;;;20.41;80.85
36234;BME280;43467;50.890;5.982;2023-08-17T08:27:46;100484.66;;;20.42;80.22
36234;BME280;43467;50.890;5.982;2023-08-17T08:30:12;100487.47;;;20.40;80.35
36234;BME280;43467;50.890;5.982;2023-08-17T08:32:37;100486.72;;;20.49;80.41
36234;BME280;43467;50.890;5.982;2023-08-17T08:35:03;100482.63;;;20.55;79.83
36234;BME280;43467;50.890;5.982;2023-08-17T08:37:28;100479.56;;;20.59;80.41
36234;BME280;43467;50.890;5.982;2023-08-17T08:39:55;100483.72;;;20.63;79.75
36234;BME280;43467;50.890;5.982;2023-08-17T08:42:22;100487.72;;;20.69;79.66
36234;BME280;43467;50.890;5.982;2023-08-17T08:44:49;100488.06;;;20.75;79.54
36234;BME280;43467;50.890;5.982;2023-08-17T08:47:16;100494.31;;;20.76;79.48
36234;BME280;43467;50.890;5.982;2023-08-17T08:49:58;100490.38;;;20.80;79.06
36234;BME280;43467;50.890;5.982;2023-08-17T08:52:32;100484.59;;;20.84;79.13
36234;BME280;43467;50.890;5.982;2023-08-17T08:54:58;100489.59;;;20.89;79.12
36234;BME280;43467;50.890;5.982;2023-08-17T08:57:25;100488.94;;;20.97;79.06
36234;BME280;43467;50.890;5.982;2023-08-17T08:59:53;100481.47;;;21.00;78.81
36234;BME280;43467;50.890;5.982;2023-08-17T09:02:19;100483.44;;;20.98;79.00
36234;BME280;43467;50.890;5.982;2023-08-17T09:04:44;100483.19;;;21.01;78.36
36234;BME280;43467;50.890;5.982;2023-08-17T09:07:11;100479.38;;;21.04;78.41
36234;BME280;43467;50.890;5.982;2023-08-17T09:09:37;100487.19;;;21.07;78.34
36234;BME280;43467;50.890;5.982;2023-08-17T09:12:03;100478.84;;;21.10;78.42
36234;BME280;43467;50.890;5.982;2023-08-17T09:14:29;100477.03;;;21.10;78.54
36234;BME280;43467;50.890;5.982;2023-08-17T09:16:54;100474.22;;;21.12;78.58
36234;BME280;43467;50.890;5.982;2023-08-17T09:19:24;100467.84;;;21.13;78.59
36234;BME280;43467;50.890;5.982;2023-08-17T09:21:49;100458.28;;;21.09;78.13
36234;BME280;43467;50.890;5.982;2023-08-17T09:24:15;100461.00;;;21.09;78.98
36234;BME280;43467;50.890;5.982;2023-08-17T09:26:40;100463.09;;;21.05;78.32
36234;BME280;43467;50.890;5.982;2023-08-17T09:29:19;100452.03;;;21.08;78.55
36234;BME280;43467;50.890;5.982;2023-08-17T09:31:48;100455.25;;;21.13;77.78
36234;BME280;43467;50.890;5.982;2023-08-17T09:34:14;100460.88;;;21.10;77.49
36234;BME280;43467;50.890;5.982;2023-08-17T09:36:41;100469.69;;;21.12;77.67
36234;BME280;43467;50.890;5.982;2023-08-17T09:39:06;100471.50;;;21.12;77.89
36234;BME280;43467;50.890;5.982;2023-08-17T09:41:38;100470.03;;;21.19;77.95
36234;BME280;43467;50.890;5.982;2023-08-17T09:44:04;100457.00;;;21.24;77.95
36234;BME280;43467;50.890;5.982;2023-08-17T09:46:30;100449.97;;;21.32;77.56
36234;BME280;43467;50.890;5.982;2023-08-17T09:48:56;100454.28;;;21.45;76.92
36234;BME280;43467;50.890;5.982;2023-08-17T09:51:21;100459.00;;;21.52;76.50
36234;BME280;43467;50.890;5.982;2023-08-17T09:53:51;100461.00;;;21.50;76.24
36234;BME280;43467;50.890;5.982;2023-08-17T09:56:20;100457.91;;;21.55;76.36
36234;BME280;43467;50.890;5.982;2023-08-17T09:58:46;100455.59;;;21.50;75.59
36234;BME280;43467;50.890;5.982;2023-08-17T10:01:12;100450.91;;;21.52;76.16
36234;BME280;43467;50.890;5.982;2023-08-17T10:03:42;100451.19;;;21.49;76.72
36234;BME280;43467;50.890;5.982;2023-08-17T10:06:10;100455.53;;;21.41;76.26
36234;BME280;43467;50.890;5.982;2023-08-17T10:08:42;100452.00;;;21.40;76.85
36234;BME280;43467;50.890;5.982;2023-08-17T10:11:09;100455.28;;;21.44;76.45
36234;BME280;43467;50.890;5.982;2023-08-17T10:13:44;100461.50;;;21.44;76.28
36234;BME280;43467;50.890;5.982;2023-08-17T10:16:17;100458.81;;;21.44;76.83
36234;BME280;43467;50.890;5.982;2023-08-17T10:21:38;100451.47;;;21.46;76.38
36234;BME280;43467;50.890;5.982;2023-08-17T10:24:05;100452.03;;;21.50;76.44
36234;BME280;43467;50.890;5.982;2023-08-17T10:26:33;100452.03;;;21.50;76.35
36234;BME280;43467;50.890;5.982;2023-08-17T10:28:58;100451.94;;;21.51;76.28
36234;BME280;43467;50.890;5.982;2023-08-17T10:31:27;100458.88;;;21.54;76.64
36234;BME280;43467;50.890;5.982;2023-08-17T10:33:52;100459.19;;;21.60;76.38
36234;BME280;43467;50.890;5.982;2023-08-17T10:36:18;100459.19;;;21.60;76.22
36234;BME280;43467;50.890;5.982;2023-08-17T10:38:44;100453.53;;;21.63;76.39
36234;BME280;43467;50.890;5.982;2023-08-17T10:41:14;100462.22;;;21.67;75.58
36234;BME280;43467;50.890;5.982;2023-08-17T10:43:59;100457.66;;;21.67;76.26
36234;BME280;43467;50.890;5.982;2023-08-17T10:46:35;100456.53;;;21.70;76.31
36234;BME280;43467;50.890;5.982;2023-08-17T10:49:03;100453.31;;;21.76;75.83
36234;BME280;43467;50.890;5.982;2023-08-17T10:51:29;100452.19;;;21.78;75.33
36234;BME280;43467;50.890;5.982;2023-08-17T10:53:58;100458.69;;;21.76;75.22
36234;BME280;43467;50.890;5.982;2023-08-17T10:56:27;100461.25;;;21.77;75.78
36234;BME280;43467;50.890;5.982;2023-08-17T10:58:53;100462.66;;;21.72;75.83
36234;BME280;43467;50.890;5.982;2023-08-17T11:01:35;100471.38;;;21.64;76.36
36234;BME280;43467;50.890;5.982;2023-08-17T11:04:11;100470.69;;;21.62;76.42
36234;BME280;43467;50.890;5.982;2023-08-17T11:06:38;100483.88;;;21.56;76.51
36234;BME280;43467;50.890;5.982;2023-08-17T11:09:07;100475.78;;;21.56;76.50
36234;BME280;43467;50.890;5.982;2023-08-17T11:11:33;100480.56;;;21.52;76.95
36234;BME280;43467;50.890;5.982;2023-08-17T11:13:58;100480.56;;;21.52;76.91
36234;BME280;43467;50.890;5.982;2023-08-17T11:16:24;100489.94;;;21.58;77.04
36234;BME280;43467;50.890;5.982;2023-08-17T11:18:49;100468.22;;;21.50;77.38
36234;BME280;43467;50.890;5.982;2023-08-17T11:21:15;100479.28;;;21.56;77.40
36234;BME280;43467;50.890;5.982;2023-08-17T11:23:41;100476.34;;;21.59;76.66
36234;BME280;43467;50.890;5.982;2023-08-17T11:26:07;100477.22;;;21.60;77.13
36234;BME280;43467;50.890;5.982;2023-08-17T11:28:34;100488.19;;;21.68;76.67
36234;BME280;43467;50.890;5.982;2023-08-17T11:31:07;100481.78;;;21.69;77.15
36234;BME280;43467;50.890;5.982;2023-08-17T11:33:34;100483.50;;;21.70;76.62
36234;BME280;43467;50.890;5.982;2023-08-17T11:36:04;100489.47;;;21.73;77.32
36234;BME280;43467;50.890;5.982;2023-08-17T11:38:43;100494.00;;;21.73;76.36
36234;BME280;43467;50.890;5.982;2023-08-17T11:41:09;100490.44;;;21.72;76.53
36234;BME280;43467;50.890;5.982;2023-08-17T11:43:35;100495.00;;;21.72;76.92
36234;BME280;43467;50.890;5.982;2023-08-17T11:46:01;100493.56;;;21.68;76.24
36234;BME280;43467;50.890;5.982;2023-08-17T11:48:28;100491.84;;;21.67;76.59
36234;BME280;43467;50.890;5.982;2023-08-17T11:50:54;100482.91;;;21.66;76.99
36234;BME280;43467;50.890;5.982;2023-08-17T11:53:20;100484.47;;;21.69;77.36
36234;BME280;43467;50.890;5.982;2023-08-17T11:55:46;100490.59;;;21.71;77.04
36234;BME280;43467;50.890;5.982;2023-08-17T11:58:11;100486.75;;;21.73;77.10
36234;BME280;43467;50.890;5.982;2023-08-17T12:00:41;100490.19;;;21.75;77.20
36234;BME280;43467;50.890;5.982;2023-08-17T12:03:06;100485.03;;;21.72;76.99
36234;BME280;43467;50.890;5.982;2023-08-17T12:05:32;100478.56;;;21.75;76.71
36234;BME280;43467;50.890;5.982;2023-08-17T12:08:01;100474.59;;;21.79;77.10
36234;BME280;43467;50.890;5.982;2023-08-17T12:10:33;100482.81;;;21.77;76.89
36234;BME280;43467;50.890;5.982;2023-08-17T12:13:00;100468.19;;;21.70;77.15
36234;BME280;43467;50.890;5.982;2023-08-17T12:15:35;100474.03;;;21.75;77.10
36234;BME280;43467;50.890;5.982;2023-08-17T12:18:02;100465.47;;;21.70;76.64
36234;BME280;43467;50.890;5.982;2023-08-17T12:20:27;100453.84;;;21.70;77.03
36234;BME280;43467;50.890;5.982;2023-08-17T12:22:53;100465.47;;;21.70;77.11
36234;BME280;43467;50.890;5.982;2023-08-17T12:25:22;100461.34;;;21.66;77.09
36234;BME280;43467;50.890;5.982;2023-08-17T12:27:48;100446.44;;;21.62;77.36
36234;BME280;43467;50.890;5.982;2023-08-17T12:30:29;100459.63;;;21.65;77.58
36234;BME280;43467;50.890;5.982;2023-08-17T12:32:57;100459.19;;;21.60;77.63
36234;BME280;43467;50.890;5.982;2023-08-17T12:35:23;100457.91;;;21.64;77.88
36234;BME280;43467;50.890;5.982;2023-08-17T12:37:50;100467.19;;;21.71;78.02
36234;BME280;43467;50.890;5.982;2023-08-17T12:40:16;100466.63;;;21.77;77.67
36234;BME280;43467;50.890;5.982;2023-08-17T12:42:41;100460.38;;;21.77;77.45
36234;BME280;43467;50.890;5.982;2023-08-17T12:45:07;100454.13;;;21.76;77.31
36234;BME280;43467;50.890;5.982;2023-08-17T12:47:32;100467.38;;;21.79;77.71
36234;BME280;43467;50.890;5.982;2023-08-17T12:49:58;100455.84;;;21.77;77.50